sensor_id;sensor_type;location;lat;lon;timestamp;pressure;altitude;pressure_sealevel;temperature;humidity
36798;BME280;22748;8.426;99.512;2022-12-18T00:00:52;100472.63;;;27.88;68.16
36798;BME280;22748;8.426;99.512;2022-12-18T00:03:22;100485.22;;;27.88;68.52
36798;BME280;22748;8.426;99.512;2022-12-18T00:05:52;100475.50;;;27.87;68.52
36798;BME280;22748;8.426;99.512;2022-12-18T00:08:23;100473.44;;;27.89;68.79
36798;BME280;22748;8.426;99.512;2022-12-18T00:10:53;100478.81;;;27.89;68.35
36798;BME280;22748;8.426;99.512;2022-12-18T00:13:24;100492.22;;;27.89;68.46
36798;BME280;22748;8.426;99.512;2022-12-18T00:15:53;100490.59;;;27.88;68.39
36798;BME280;22748;8.426;99.512;2022-12-18T00:18:22;100492.66;;;27.86;68.61
36798;BME280;22748;8.426;99.512;2022-12-18T00:20:52;100488.69;;;27.82;68.42
36798;BME280;22748;8.426;99.512;2022-12-18T00:23:21;100487.06;;;27.81;68.93
36798;BME280;22748;8.426;99.512;2022-12-18T00:25:50;100488.88;;;27.80;69.05
36798;BME280;22748;8.426;99.512;2022-12-18T00:28:26;100480.84;;;27.80;68.93
36798;BME280;22748;8.426;99.512;2022-12-18T00:31:01;100487.88;;;27.81;69.10
36798;BME280;22748;8.426;99.512;2022-12-18T00:33:31;100494.88;;;27.82;69.31
36798;BME280;22748;8.426;99.512;2022-12-18T00:36:03;100498.59;;;27.81;69.41
36798;BME280;22748;8.426;99.512;2022-12-18T00:38:36;100488.69;;;27.82;68.97
36798;BME280;22748;8.426;99.512;2022-12-18T00:41:06;100494.06;;;27.82;69.43
36798;BME280;22748;8.426;99.512;2022-12-18T00:43:39;100491.56;;;27.80;69.21
36798;BME280;22748;8.426;99.512;2022-12-18T00:46:09;100486.19;;;27.80;68.90
36798;BME280;22748;8.426;99.512;2022-12-18T00:48:41;100491.81;;;27.79;69.42
36798;BME280;22748;8.426;99.512;2022-12-18T00:51:12;100494.47;;;27.79;69.50
36798;BME280;22748;8.426;99.512;2022-12-18T00:53:42;100486.44;;;27.79;69.21
36798;BME280;22748;8.426;99.512;2022-12-18T00:56:12;100491.81;;;27.79;69.60
36798;BME280;22748;8.426;99.512;2022-12-18T00:58:43;100499.22;;;27.77;69.70
36798;BME280;22748;8.426;99.512;2022-12-18T01:01:14;100500.25;;;27.76;69.80
36798;BME280;22748;8.426;99.512;2022-12-18T01:03:45;100508.91;;;27.78;69.85
36798;BME280;22748;8.426;99.512;2022-12-18T01:06:14;100510.97;;;27.76;69.33
36798;BME280;22748;8.426;99.512;2022-12-18T01:08:45;100517.78;;;27.78;70.03
36798;BME280;22748;8.426;99.512;2022-12-18T01:11:15;100498.19;;;27.78;70.12
36798;BME280;22748;8.426;99.512;2022-12-18T01:13:49;100513.47;;;27.77;70.04
36798;BME280;22748;8.426;99.512;2022-12-18T01:16:19;100509.72;;;27.78;70.18
36798;BME280;22748;8.426;99.512;2022-12-18T01:18:52;100519.66;;;27.78;70.34
36798;BME280;22748;8.426;99.512;2022-12-18T01:21:23;100515.31;;;27.77;69.96
36798;BME280;22748;8.426;99.512;2022-12-18T01:23:56;100508.09;;;27.77;70.14
36798;BME280;22748;8.426;99.512;2022-12-18T01:26:28;100518.81;;;27.77;70.09
36798;BME280;22748;8.426;99.512;2022-12-18T01:29:00;100507.28;;;27.77;70.07
36798;BME280;22748;8.426;99.512;2022-12-18T01:31:32;100509.72;;;27.78;70.42
36798;BME280;22748;8.426;99.512;2022-12-18T01:34:03;100514.91;;;27.80;70.16
36798;BME280;22748;8.426;99.512;2022-12-18T01:36:40;100511.59;;;27.78;70.66
36798;BME280;22748;8.426;99.512;2022-12-18T01:39:12;100515.09;;;27.78;70.25
36798;BME280;22748;8.426;99.512;2022-12-18T01:41:42;100518.63;;;27.79;70.57
36798;BME280;22748;8.426;99.512;2022-12-18T01:44:54;100534.94;;;27.77;70.42
36798;BME280;22748;8.426;99.512;2022-12-18T01:47:26;100543.78;;;27.78;70.80
36798;BME280;22748;8.426;99.512;2022-12-18T01:49:59;100540.28;;;27.77;70.62
36798;BME280;22748;8.426;99.512;2022-12-18T01:52:31;100546.91;;;27.75;70.84
36798;BME280;22748;8.426;99.512;2022-12-18T01:55:03;100559.25;;;27.69;71.07
36798;BME280;22748;8.426;99.512;2022-12-18T01:57:35;100557.19;;;27.71;71.21
36798;BME280;22748;8.426;99.512;2022-12-18T02:00:09;100559.69;;;27.73;70.82
36798;BME280;22748;8.426;99.512;2022-12-18T02:02:40;100572.47;;;27.70;71.48
36798;BME280;22748;8.426;99.512;2022-12-18T02:05:10;100568.53;;;27.66;71.21
36798;BME280;22748;8.426;99.512;2022-12-18T02:07:45;100561.72;;;27.57;71.71
36798;BME280;22748;8.426;99.512;2022-12-18T02:10:24;100553.66;;;27.57;72.18
36798;BME280;22748;8.426;99.512;2022-12-18T02:13:05;100553.47;;;27.65;72.01
36798;BME280;22748;8.426;99.512;2022-12-18T02:15:46;100567.94;;;27.71;71.39
36798;BME280;22748;8.426;99.512;2022-12-18T02:18:20;100571.88;;;27.75;71.71
36798;BME280;22748;8.426;99.512;2022-12-18T02:20:58;100583.03;;;27.79;71.42
36798;BME280;22748;8.426;99.512;2022-12-18T02:23:47;100586.53;;;27.79;71.63
36798;BME280;22748;8.426;99.512;2022-12-18T02:26:27;100594.41;;;27.81;71.21
36798;BME280;22748;8.426;99.512;2022-12-18T02:29:03;100592.31;;;27.83;71.44
36798;BME280;22748;8.426;99.512;2022-12-18T02:31:38;100605.53;;;27.84;71.17
36798;BME280;22748;8.426;99.512;2022-12-18T02:34:11;100600.34;;;27.83;71.90
36798;BME280;22748;8.426;99.512;2022-12-18T02:36:45;100602.03;;;27.84;71.79
36798;BME280;22748;8.426;99.512;2022-12-18T02:39:17;100613.78;;;27.83;71.67
36798;BME280;22748;8.426;99.512;2022-12-18T02:41:50;100602.22;;;27.82;71.32
36798;BME280;22748;8.426;99.512;2022-12-18T02:44:22;100605.13;;;27.81;71.93
36798;BME280;22748;8.426;99.512;2022-12-18T02:46:54;100604.91;;;27.82;71.90
36798;BME280;22748;8.426;99.512;2022-12-18T02:49:34;100615.44;;;27.84;71.95
36798;BME280;22748;8.426;99.512;2022-12-18T02:52:17;100611.75;;;27.85;72.00
36798;BME280;22748;8.426;99.512;2022-12-18T02:54:59;100613.41;;;27.86;72.08
36798;BME280;22748;8.426;99.512;2022-12-18T02:57:36;100610.06;;;27.84;71.84
36798;BME280;22748;8.426;99.512;2022-12-18T03:00:14;100606.38;;;27.85;72.03
36798;BME280;22748;8.426;99.512;2022-12-18T03:02:48;100608.06;;;27.86;72.28
36798;BME280;22748;8.426;99.512;2022-12-18T03:05:25;100607.84;;;27.87;72.64
36798;BME280;22748;8.426;99.512;2022-12-18T03:08:01;100603.31;;;27.88;72.24
36798;BME280;22748;8.426;99.512;2022-12-18T03:10:38;100599.59;;;27.89;72.61
36798;BME280;22748;8.426;99.512;2022-12-18T03:13:15;100600.63;;;27.88;72.53
36798;BME280;22748;8.426;99.512;2022-12-18T03:15:53;100596.06;;;27.88;72.11
36798;BME280;22748;8.426;99.512;2022-12-18T03:18:32;100595.66;;;27.85;72.58
36798;BME280;22748;8.426;99.512;2022-12-18T03:21:06;100588.59;;;27.84;72.39
36798;BME280;22748;8.426;99.512;2022-12-18T03:23:42;100592.31;;;27.83;72.52
36798;BME280;22748;8.426;99.512;2022-12-18T03:26:16;100589.03;;;27.81;72.25
36798;BME280;22748;8.426;99.512;2022-12-18T03:28:52;100591.72;;;27.81;72.14
36798;BME280;22748;8.426;99.512;2022-12-18T03:31:23;100597.06;;;27.81;72.52
36798;BME280;22748;8.426;99.512;2022-12-18T03:33:57;100592.09;;;27.78;72.38
36798;BME280;22748;8.426;99.512;2022-12-18T03:36:33;100589.41;;;27.78;72.25
36798;BME280;22748;8.426;99.512;2022-12-18T03:39:03;100593.78;;;27.79;72.44
36798;BME280;22748;8.426;99.512;2022-12-18T03:41:41;100589.03;;;27.81;72.40
36798;BME280;22748;8.426;99.512;2022-12-18T03:44:20;100583.66;;;27.81;72.23
36798;BME280;22748;8.426;99.512;2022-12-18T03:46:58;100581.56;;;27.83;72.28
36798;BME280;22748;8.426;99.512;2022-12-18T03:49:34;100572.50;;;27.84;72.35
36798;BME280;22748;8.426;99.512;2022-12-18T03:52:09;100574.19;;;27.85;72.50
36798;BME280;22748;8.426;99.512;2022-12-18T03:54:42;100567.13;;;27.84;72.11
36798;BME280;22748;8.426;99.512;2022-12-18T03:57:16;100556.41;;;27.84;72.53
36798;BME280;22748;8.426;99.512;2022-12-18T03:59:51;100559.09;;;27.84;71.96
36798;BME280;22748;8.426;99.512;2022-12-18T04:02:24;100566.13;;;27.85;72.47
36798;BME280;22748;8.426;99.512;2022-12-18T04:04:59;100575.03;;;27.85;72.51
36798;BME280;22748;8.426;99.512;2022-12-18T04:07:31;100564.47;;;27.84;72.39
36798;BME280;22748;8.426;99.512;2022-12-18T04:10:04;100557.41;;;27.83;71.91
36798;BME280;22748;8.426;99.512;2022-12-18T04:12:40;100546.69;;;27.83;72.48
36798;BME280;22748;8.426;99.512;2022-12-18T04:15:13;100539.06;;;27.80;72.00
36798;BME280;22748;8.426;99.512;2022-12-18T04:17:43;100540.09;;;27.79;71.87
36798;BME280;22748;8.426;99.512;2022-12-18T04:20:16;100544.22;;;27.81;72.52
36798;BME280;22748;8.426;99.512;2022-12-18T04:22:48;100530.00;;;27.81;72.63
36798;BME280;22748;8.426;99.512;2022-12-18T04:25:18;100529.56;;;27.77;72.76
36798;BME280;22748;8.426;99.512;2022-12-18T04:27:47;100538.22;;;27.79;72.28
36798;BME280;22748;8.426;99.512;2022-12-18T04:30:21;100534.09;;;27.77;72.42
36798;BME280;22748;8.426;99.512;2022-12-18T04:32:50;100525.44;;;27.75;72.20
36798;BME280;22748;8.426;99.512;2022-12-18T04:35:20;100515.50;;;27.68;72.83
36798;BME280;22748;8.426;99.512;2022-12-18T04:37:50;100514.28;;;27.71;72.60
36798;BME280;22748;8.426;99.512;2022-12-18T04:40:22;100509.53;;;27.66;72.81
36798;BME280;22748;8.426;99.512;2022-12-18T04:42:58;100508.47;;;27.61;72.38
36798;BME280;22748;8.426;99.512;2022-12-18T04:45:34;100512.00;;;27.61;72.20
36798;BME280;22748;8.426;99.512;2022-12-18T04:48:04;100508.91;;;27.64;72.49
36798;BME280;22748;8.426;99.512;2022-12-18T04:50:34;100504.75;;;27.55;72.71
36798;BME280;22748;8.426;99.512;2022-12-18T04:53:03;100507.78;;;27.39;73.19
36798;BME280;22748;8.426;99.512;2022-12-18T04:55:33;100505.94;;;27.39;73.17
36798;BME280;22748;8.426;99.512;2022-12-18T04:58:02;100507.00;;;27.45;72.87
36798;BME280;22748;8.426;99.512;2022-12-18T05:00:33;100488.44;;;27.50;72.52
36798;BME280;22748;8.426;99.512;2022-12-18T05:03:04;100486.19;;;27.54;72.38
36798;BME280;22748;8.426;99.512;2022-12-18T05:05:34;100482.69;;;27.53;72.44
36798;BME280;22748;8.426;99.512;2022-12-18T05:08:05;100488.84;;;27.54;72.48
36798;BME280;22748;8.426;99.512;2022-12-18T05:10:35;100474.63;;;27.46;72.51
36798;BME280;22748;8.426;99.512;2022-12-18T05:13:05;100473.38;;;27.49;72.70
36798;BME280;22748;8.426;99.512;2022-12-18T05:15:37;100475.63;;;27.39;72.46
36798;BME280;22748;8.426;99.512;2022-12-18T05:18:09;100476.66;;;27.38;72.98
36798;BME280;22748;8.426;99.512;2022-12-18T05:20:39;100474.19;;;27.43;72.92
36798;BME280;22748;8.426;99.512;2022-12-18T05:23:10;100479.97;;;27.46;73.04
36798;BME280;22748;8.426;99.512;2022-12-18T05:25:39;100475.44;;;27.47;72.92
36798;BME280;22748;8.426;99.512;2022-12-18T05:28:10;100482.44;;;27.48;72.45
36798;BME280;22748;8.426;99.512;2022-12-18T05:30:48;100469.03;;;27.48;72.46
36798;BME280;22748;8.426;99.512;2022-12-18T05:33:21;100476.25;;;27.54;72.60
36798;BME280;22748;8.426;99.512;2022-12-18T05:35:53;100463.06;;;27.53;72.35
36798;BME280;22748;8.426;99.512;2022-12-18T05:38:24;100471.13;;;27.59;72.36
36798;BME280;22748;8.426;99.512;2022-12-18T05:40:54;100464.09;;;27.58;72.39
36798;BME280;22748;8.426;99.512;2022-12-18T05:43:25;100468.44;;;27.53;72.20
36798;BME280;22748;8.426;99.512;2022-12-18T05:45:57;100471.31;;;27.51;72.44
36798;BME280;22748;8.426;99.512;2022-12-18T05:48:32;100461.84;;;27.55;72.19
36798;BME280;22748;8.426;99.512;2022-12-18T05:51:08;100457.28;;;27.49;71.96
36798;BME280;22748;8.426;99.512;2022-12-18T05:53:38;100454.78;;;27.47;72.13
36798;BME280;22748;8.426;99.512;2022-12-18T05:56:11;100445.13;;;27.46;72.19
36798;BME280;22748;8.426;99.512;2022-12-18T05:58:42;100439.75;;;27.40;71.73
36798;BME280;22748;8.426;99.512;2022-12-18T06:01:18;100437.44;;;27.37;72.04
36798;BME280;22748;8.426;99.512;2022-12-18T06:03:50;100431.88;;;27.38;72.25
36798;BME280;22748;8.426;99.512;2022-12-18T06:06:22;100437.06;;;27.40;71.79
36798;BME280;22748;8.426;99.512;2022-12-18T06:08:53;100435.19;;;27.40;72.07
36798;BME280;22748;8.426;99.512;2022-12-18T06:11:25;100414.97;;;27.38;71.66
36798;BME280;22748;8.426;99.512;2022-12-18T06:13:56;100419.09;;;27.34;71.49
36798;BME280;22748;8.426;99.512;2022-12-18T06:16:28;100411.25;;;27.39;71.94
36798;BME280;22748;8.426;99.512;2022-12-18T06:19:01;100396.84;;;27.40;71.15
36798;BME280;22748;8.426;99.512;2022-12-18T06:21:34;100385.88;;;27.35;71.46
36798;BME280;22748;8.426;99.512;2022-12-18T06:24:04;100400.13;;;27.28;71.76
36798;BME280;22748;8.426;99.512;2022-12-18T06:26:37;100384.59;;;27.17;71.73
36798;BME280;22748;8.426;99.512;2022-12-18T06:29:09;100384.19;;;27.20;71.34
36798;BME280;22748;8.426;99.512;2022-12-18T06:31:39;100379.47;;;27.22;71.64
36798;BME280;22748;8.426;99.512;2022-12-18T06:34:09;100381.75;;;27.25;70.80
36798;BME280;22748;8.426;99.512;2022-12-18T06:36:40;100376.38;;;27.32;70.87
36798;BME280;22748;8.426;99.512;2022-12-18T06:39:11;100369.41;;;27.38;71.04
36798;BME280;22748;8.426;99.512;2022-12-18T06:41:43;100372.47;;;27.35;71.07
36798;BME280;22748;8.426;99.512;2022-12-18T06:44:13;100368.97;;;27.41;70.80
36798;BME280;22748;8.426;99.512;2022-12-18T06:46:48;100370.22;;;27.45;70.94
36798;BME280;22748;8.426;99.512;2022-12-18T06:49:20;100376.00;;;27.35;70.99
36798;BME280;22748;8.426;99.512;2022-12-18T06:51:49;100373.31;;;27.35;71.06
36798;BME280;22748;8.426;99.512;2022-12-18T06:54:20;100359.50;;;27.38;70.52
36798;BME280;22748;8.426;99.512;2022-12-18T06:57:09;100365.03;;;27.37;70.22
36798;BME280;22748;8.426;99.512;2022-12-18T06:59:38;100355.13;;;27.31;70.76
36798;BME280;22748;8.426;99.512;2022-12-18T07:02:16;100364.84;;;27.32;70.37
36798;BME280;22748;8.426;99.512;2022-12-18T07:04:50;100367.53;;;27.32;70.00
36798;BME280;22748;8.426;99.512;2022-12-18T07:07:21;100367.09;;;27.21;69.76
36798;BME280;22748;8.426;99.512;2022-12-18T07:09:52;100359.91;;;27.28;70.03
36798;BME280;22748;8.426;99.512;2022-12-18T07:12:23;100361.13;;;27.39;70.49
36798;BME280;22748;8.426;99.512;2022-12-18T07:14:54;100358.47;;;27.46;70.22
36798;BME280;22748;8.426;99.512;2022-12-18T07:17:26;100351.63;;;27.50;69.96
36798;BME280;22748;8.426;99.512;2022-12-18T07:20:03;100359.91;;;27.55;69.67
36798;BME280;22748;8.426;99.512;2022-12-18T07:22:33;100362.38;;;27.57;70.12
36798;BME280;22748;8.426;99.512;2022-12-18T07:25:04;100351.63;;;27.57;69.82
36798;BME280;22748;8.426;99.512;2022-12-18T07:27:48;100369.59;;;27.56;70.13
36798;BME280;22748;8.426;99.512;2022-12-18T07:30:24;100351.88;;;27.55;69.92
36798;BME280;22748;8.426;99.512;2022-12-18T07:32:59;100352.69;;;27.56;69.75
36798;BME280;22748;8.426;99.512;2022-12-18T07:35:37;100350.81;;;27.56;70.21
36798;BME280;22748;8.426;99.512;2022-12-18T07:38:18;100343.38;;;27.58;70.09
36798;BME280;22748;8.426;99.512;2022-12-18T07:40:47;100352.06;;;27.60;70.10
36798;BME280;22748;8.426;99.512;2022-12-18T07:43:18;100340.50;;;27.60;69.89
36798;BME280;22748;8.426;99.512;2022-12-18T07:45:51;100353.72;;;27.61;70.23
36798;BME280;22748;8.426;99.512;2022-12-18T07:48:23;100351.66;;;27.63;70.11
36798;BME280;22748;8.426;99.512;2022-12-18T07:50:58;100346.28;;;27.63;70.30
36798;BME280;22748;8.426;99.512;2022-12-18T07:53:28;100323.78;;;27.64;69.73
36798;BME280;22748;8.426;99.512;2022-12-18T07:55:58;100328.34;;;27.64;70.18
36798;BME280;22748;8.426;99.512;2022-12-18T07:58:30;100321.09;;;27.64;69.70
36798;BME280;22748;8.426;99.512;2022-12-18T08:01:04;100312.25;;;27.64;69.63
36798;BME280;22748;8.426;99.512;2022-12-18T08:03:36;100310.19;;;27.66;69.55
36798;BME280;22748;8.426;99.512;2022-12-18T08:06:11;100315.31;;;27.67;69.85
36798;BME280;22748;8.426;99.512;2022-12-18T08:08:41;100309.94;;;27.67;70.18
36798;BME280;22748;8.426;99.512;2022-12-18T08:11:14;100299.22;;;27.67;70.14
36798;BME280;22748;8.426;99.512;2022-12-18T08:13:47;100303.75;;;27.67;70.10
36798;BME280;22748;8.426;99.512;2022-12-18T08:16:19;100310.38;;;27.64;70.45
36798;BME280;22748;8.426;99.512;2022-12-18T08:18:52;100310.38;;;27.64;70.34
36798;BME280;22748;8.426;99.512;2022-12-18T08:21:24;100303.75;;;27.67;70.11
36798;BME280;22748;8.426;99.512;2022-12-18T08:23:59;100302.53;;;27.63;69.76
36798;BME280;22748;8.426;99.512;2022-12-18T08:26:34;100301.72;;;27.62;70.05
36798;BME280;22748;8.426;99.512;2022-12-18T08:29:06;100301.72;;;27.62;70.36
36798;BME280;22748;8.426;99.512;2022-12-18T08:31:36;100292.66;;;27.63;70.48
36798;BME280;22748;8.426;99.512;2022-12-18T08:34:10;100295.31;;;27.63;70.22
36798;BME280;22748;8.426;99.512;2022-12-18T08:36:42;100295.91;;;27.65;70.23
36798;BME280;22748;8.426;99.512;2022-12-18T08:39:13;100282.94;;;27.62;70.45
36798;BME280;22748;8.426;99.512;2022-12-18T08:41:47;100291.81;;;27.63;70.33
36798;BME280;22748;8.426;99.512;2022-12-18T08:44:31;100282.50;;;27.65;70.53
36798;BME280;22748;8.426;99.512;2022-12-18T08:47:09;100281.47;;;27.66;70.78
36798;BME280;22748;8.426;99.512;2022-12-18T08:49:40;100279.22;;;27.63;70.54
36798;BME280;22748;8.426;99.512;2022-12-18T08:52:11;100278.19;;;27.64;70.51
36798;BME280;22748;8.426;99.512;2022-12-18T08:54:45;100271.19;;;27.63;70.98
36798;BME280;22748;8.426;99.512;2022-12-18T08:57:16;100268.06;;;27.66;70.41
36798;BME280;22748;8.426;99.512;2022-12-18T08:59:46;100277.38;;;27.57;70.07
36798;BME280;22748;8.426;99.512;2022-12-18T09:02:17;100296.78;;;27.53;70.18
36798;BME280;22748;8.426;99.512;2022-12-18T09:04:49;100297.81;;;27.45;70.24
36798;BME280;22748;8.426;99.512;2022-12-18T09:07:19;100292.25;;;27.40;70.19
36798;BME280;22748;8.426;99.512;2022-12-18T09:09:49;100288.94;;;27.38;70.50
36798;BME280;22748;8.426;99.512;2022-12-18T09:12:19;100289.34;;;27.35;70.14
36798;BME280;22748;8.426;99.512;2022-12-18T09:14:50;100295.13;;;27.32;70.44
36798;BME280;22748;8.426;99.512;2022-12-18T09:17:21;100314.09;;;27.37;70.54
36798;BME280;22748;8.426;99.512;2022-12-18T09:19:54;100303.59;;;27.35;70.46
36798;BME280;22748;8.426;99.512;2022-12-18T09:22:23;100303.19;;;27.32;70.29
36798;BME280;22748;8.426;99.512;2022-12-18T09:24:53;100293.69;;;27.29;69.94
36798;BME280;22748;8.426;99.512;2022-12-18T09:27:24;100302.56;;;27.29;70.07
36798;BME280;22748;8.426;99.512;2022-12-18T09:29:53;100309.13;;;27.20;70.18
36798;BME280;22748;8.426;99.512;2022-12-18T09:32:24;100302.97;;;27.26;69.82
36798;BME280;22748;8.426;99.512;2022-12-18T09:34:56;100314.09;;;27.23;69.86
36798;BME280;22748;8.426;99.512;2022-12-18T09:37:26;100305.25;;;27.29;69.80
36798;BME280;22748;8.426;99.512;2022-12-18T09:39:57;100307.50;;;27.33;69.39
36798;BME280;22748;8.426;99.512;2022-12-18T09:42:27;100314.53;;;27.34;69.67
36798;BME280;22748;8.426;99.512;2022-12-18T09:44:59;100325.66;;;27.31;69.44
36798;BME280;22748;8.426;99.512;2022-12-18T09:47:33;100312.84;;;27.26;69.18
36798;BME280;22748;8.426;99.512;2022-12-18T09:50:21;100307.72;;;27.24;69.34
36798;BME280;22748;8.426;99.512;2022-12-18T09:52:55;100305.66;;;27.26;69.24
36798;BME280;22748;8.426;99.512;2022-12-18T09:55:30;100307.72;;;27.31;69.13
36798;BME280;22748;8.426;99.512;2022-12-18T09:58:06;100306.28;;;27.28;69.40
36798;BME280;22748;8.426;99.512;2022-12-18T10:00:40;100308.97;;;27.28;69.23
36798;BME280;22748;8.426;99.512;2022-12-18T10:03:14;100312.84;;;27.33;69.10
36798;BME280;22748;8.426;99.512;2022-12-18T10:05:54;100330.63;;;27.34;69.13
36798;BME280;22748;8.426;99.512;2022-12-18T10:08:36;100347.72;;;27.39;68.86
36798;BME280;22748;8.426;99.512;2022-12-18T10:11:29;100338.84;;;27.39;69.19
36798;BME280;22748;8.426;99.512;2022-12-18T10:14:08;100349.56;;;27.39;69.11
36798;BME280;22748;8.426;99.512;2022-12-18T10:16:47;100355.38;;;27.36;69.15
36798;BME280;22748;8.426;99.512;2022-12-18T10:19:32;100348.75;;;27.32;68.91
36798;BME280;22748;8.426;99.512;2022-12-18T10:22:18;100357.22;;;27.28;69.17
36798;BME280;22748;8.426;99.512;2022-12-18T10:24:58;100359.06;;;27.35;68.82
36798;BME280;22748;8.426;99.512;2022-12-18T10:27:32;100360.31;;;27.25;68.60
36798;BME280;22748;8.426;99.512;2022-12-18T10:30:08;100363.19;;;27.31;68.77
36798;BME280;22748;8.426;99.512;2022-12-18T10:32:43;100354.75;;;27.34;69.13
36798;BME280;22748;8.426;99.512;2022-12-18T10:35:17;100365.91;;;27.37;69.06
36798;BME280;22748;8.426;99.512;2022-12-18T10:38:06;100367.53;;;27.38;68.82
36798;BME280;22748;8.426;99.512;2022-12-18T10:40:50;100364.84;;;27.38;68.67
36798;BME280;22748;8.426;99.512;2022-12-18T10:43:22;100355.38;;;27.42;69.17
36798;BME280;22748;8.426;99.512;2022-12-18T10:46:02;100365.91;;;27.44;68.75
36798;BME280;22748;8.426;99.512;2022-12-18T10:48:36;100370.22;;;27.45;68.41
36798;BME280;22748;8.426;99.512;2022-12-18T10:51:09;100381.56;;;27.47;68.96
36798;BME280;22748;8.426;99.512;2022-12-18T10:54:02;100383.00;;;27.43;69.02
36798;BME280;22748;8.426;99.512;2022-12-18T10:56:35;100391.03;;;27.43;68.92
36798;BME280;22748;8.426;99.512;2022-12-18T10:59:07;100398.69;;;27.46;68.78
36798;BME280;22748;8.426;99.512;2022-12-18T11:01:48;100392.91;;;27.36;68.41
36798;BME280;22748;8.426;99.512;2022-12-18T11:04:21;100391.47;;;27.33;69.16
36798;BME280;22748;8.426;99.512;2022-12-18T11:06:57;100401.16;;;27.34;69.02
36798;BME280;22748;8.426;99.512;2022-12-18T11:09:32;100415.59;;;27.40;68.58
36798;BME280;22748;8.426;99.512;2022-12-18T11:12:04;100427.75;;;27.36;68.35
36798;BME280;22748;8.426;99.512;2022-12-18T11:14:45;100418.41;;;27.18;67.88
36798;BME280;22748;8.426;99.512;2022-12-18T11:17:21;100411.81;;;27.14;68.72
36798;BME280;22748;8.426;99.512;2022-12-18T11:19:57;100426.31;;;27.26;69.19
36798;BME280;22748;8.426;99.512;2022-12-18T11:22:28;100441.56;;;27.33;68.98
36798;BME280;22748;8.426;99.512;2022-12-18T11:25:03;100432.50;;;27.27;68.74
36798;BME280;22748;8.426;99.512;2022-12-18T11:27:35;100429.97;;;27.19;68.84
36798;BME280;22748;8.426;99.512;2022-12-18T11:30:13;100431.63;;;27.20;68.36
36798;BME280;22748;8.426;99.512;2022-12-18T11:32:49;100436.00;;;27.27;68.85
36798;BME280;22748;8.426;99.512;2022-12-18T11:35:32;100440.75;;;27.32;68.38
36798;BME280;22748;8.426;99.512;2022-12-18T11:38:18;100447.34;;;27.36;68.62
36798;BME280;22748;8.426;99.512;2022-12-18T11:40:56;100441.56;;;27.39;68.14
36798;BME280;22748;8.426;99.512;2022-12-18T11:43:31;100442.00;;;27.43;68.35
36798;BME280;22748;8.426;99.512;2022-12-18T11:46:10;100442.81;;;27.43;68.52
36798;BME280;22748;8.426;99.512;2022-12-18T11:48:44;100443.66;;;27.44;68.57
36798;BME280;22748;8.426;99.512;2022-12-18T11:51:27;100436.25;;;27.46;68.46
36798;BME280;22748;8.426;99.512;2022-12-18T11:54:16;100440.56;;;27.47;68.33
36798;BME280;22748;8.426;99.512;2022-12-18T11:56:53;100436.84;;;27.48;67.78
36798;BME280;22748;8.426;99.512;2022-12-18T11:59:32;100434.16;;;27.48;67.96
36798;BME280;22748;8.426;99.512;2022-12-18T12:02:22;100437.69;;;27.48;68.12
36798;BME280;22748;8.426;99.512;2022-12-18T12:05:16;100457.28;;;27.49;68.23
36798;BME280;22748;8.426;99.512;2022-12-18T12:07:57;100460.59;;;27.51;68.28
36798;BME280;22748;8.426;99.512;2022-12-18T12:10:47;100475.00;;;27.50;68.36
36798;BME280;22748;8.426;99.512;2022-12-18T12:13:35;100465.13;;;27.51;68.30
36798;BME280;22748;8.426;99.512;2022-12-18T12:16:16;100470.28;;;27.52;67.90
36798;BME280;22748;8.426;99.512;2022-12-18T12:18:56;100480.00;;;27.53;68.05
36798;BME280;22748;8.426;99.512;2022-12-18T12:21:38;100474.63;;;27.53;67.77
36798;BME280;22748;8.426;99.512;2022-12-18T12:24:25;100492.34;;;27.54;67.76
36798;BME280;22748;8.426;99.512;2022-12-18T12:27:07;100505.78;;;27.54;67.74
36798;BME280;22748;8.426;99.512;2022-12-18T12:29:50;100514.66;;;27.55;67.82
36798;BME280;22748;8.426;99.512;2022-12-18T12:32:36;100512.19;;;27.53;68.11
36798;BME280;22748;8.426;99.512;2022-12-18T12:35:26;100522.91;;;27.53;68.02
36798;BME280;22748;8.426;99.512;2022-12-18T12:38:12;100512.19;;;27.53;67.81
36798;BME280;22748;8.426;99.512;2022-12-18T12:41:02;100536.31;;;27.53;67.66
36798;BME280;22748;8.426;99.512;2022-12-18T12:47:26;100536.50;;;27.52;67.46
36798;BME280;22748;8.426;99.512;2022-12-18T12:50:13;100535.06;;;27.49;67.99
36798;BME280;22748;8.426;99.512;2022-12-18T12:52:54;100546.41;;;27.51;67.76
36798;BME280;22748;8.426;99.512;2022-12-18T12:55:39;100555.47;;;27.50;67.95
36798;BME280;22748;8.426;99.512;2022-12-18T12:58:30;100566.63;;;27.47;68.25
36798;BME280;22748;8.426;99.512;2022-12-18T13:01:21;100583.53;;;27.47;68.03
36798;BME280;22748;8.426;99.512;2022-12-18T13:04:12;100589.72;;;27.48;68.01
36798;BME280;22748;8.426;99.512;2022-12-18T13:06:58;100602.94;;;27.49;67.55
36798;BME280;22748;8.426;99.512;2022-12-18T13:13:03;100608.31;;;27.49;67.49
36798;BME280;22748;8.426;99.512;2022-12-18T13:15:45;100605.44;;;27.51;67.44
36798;BME280;22748;8.426;99.512;2022-12-18T13:18:26;100640.13;;;27.53;67.84
36798;BME280;22748;8.426;99.512;2022-12-18T13:21:20;100641.13;;;27.52;67.69
36798;BME280;22748;8.426;99.512;2022-12-18T13:24:20;100642.16;;;27.51;67.52
36798;BME280;22748;8.426;99.512;2022-12-18T13:43:50;100738.28;;;27.47;67.43
36798;BME280;22748;8.426;99.512;2022-12-18T13:46:41;100746.31;;;27.47;67.43
36798;BME280;22748;8.426;99.512;2022-12-18T13:49:28;100756.41;;;27.45;67.37
36798;BME280;22748;8.426;99.512;2022-12-18T13:52:19;100756.81;;;27.42;67.60
36798;BME280;22748;8.426;99.512;2022-12-18T13:55:01;100755.16;;;27.41;67.86